PWSweather.com
Personal Weather Stations
Station Observations
KNVELKO7
Elko, NV 89801

Elko, NV 89801

Lat: 40.963233, Lon: -115.592836

Elevation: 5230

Station Type: WS-2812

High Low Average
Temperature 88.9°F31.6°F 40.3°F4.6°F 64.8°F18.2°F
Dew Point 46.1°F7.8°F 26.2°F-3.2°F 35.3°F1.8°F
Winds 9.6 mph WSW15.4 mph WSW Calm Calm 2.8 mph 4.5 mph
Wind Gusts 12.8 mph20.6 mph -- 5.0 mph8.0 mph
Humidity 68% 17% 37%
Pressure 30.12 in1020.00 in 30.02 in1016.60 in -
Precipitation 0.00 in0.00 in - -
Hour Temp Dew Point Humidity Winds Wind Gusts Pressure Precip Precip Rate Daily Precip Total
12:04 AM 52.0°F11.1°C 30.1°F-1.1°C 43% 1.8 mph N2.9 kmh N 4.3 mph6.9 kmh 30.05 in1017.6 mb 0.00 in0.0 mm 0.00 in/hr0.0 mm/hr 0.00 in0.0 mm
12:09 AM 51.8°F11.0°C 29.3°F-1.5°C 42% 3.8 mph N6.1 kmh N 4.0 mph6.4 kmh 30.05 in1017.6 mb 0.00 in0.0 mm 0.00 in/hr0.0 mm/hr 0.00 in0.0 mm
12:14 AM 51.7°F10.9°C 29.3°F-1.5°C 42% 4.3 mph NNE6.9 kmh NNE 5.6 mph9.0 kmh 30.05 in1017.6 mb 0.00 in0.0 mm 0.00 in/hr0.0 mm/hr 0.00 in0.0 mm
12:19 AM 51.8°F11.0°C 30.0°F-1.1°C 43% 3.0 mph NNE4.8 kmh NNE 5.8 mph9.3 kmh 30.05 in1017.6 mb 0.00 in0.0 mm 0.00 in/hr0.0 mm/hr 0.00 in0.0 mm
12:24 AM 52.0°F11.1°C 29.5°F-1.4°C 42% 0.8 mph E1.3 kmh E 5.8 mph9.3 kmh 30.05 in1017.6 mb 0.00 in0.0 mm 0.00 in/hr0.0 mm/hr 0.00 in0.0 mm
12:29 AM 51.7°F10.9°C 29.3°F-1.5°C 42% 2.0 mph SE3.2 kmh SE 3.1 mph5.0 kmh 30.05 in1017.6 mb 0.00 in0.0 mm 0.00 in/hr0.0 mm/hr 0.00 in0.0 mm
12:34 AM 51.1°F10.6°C 28.7°F-1.8°C 42% 1.3 mph ESE2.1 kmh ESE 3.1 mph5.0 kmh 30.05 in1017.6 mb 0.00 in0.0 mm 0.00 in/hr0.0 mm/hr 0.00 in0.0 mm
12:38 AM 50.8°F10.4°C 29.0°F-1.7°C 43% Calm Calm 2.5 mph4.0 kmh 30.06 in1017.9 mb 0.00 in0.0 mm 0.00 in/hr0.0 mm/hr 0.00 in0.0 mm
12:43 AM 50.0°F10.0°C 28.4°F-2.0°C 43% 0.9 mph NE1.4 kmh NE 1.1 mph1.8 kmh 30.06 in1017.9 mb 0.00 in0.0 mm 0.00 in/hr0.0 mm/hr 0.00 in0.0 mm
12:48 AM 49.7°F9.8°C 28.0°F-2.2°C 43% 0.4 mph NE0.6 kmh NE 1.1 mph1.8 kmh 30.06 in1017.9 mb 0.00 in0.0 mm 0.00 in/hr0.0 mm/hr 0.00 in0.0 mm
12:53 AM 49.0°F9.4°C 29.0°F-1.7°C 46% 6.9 mph N11.1 kmh N 8.3 mph13.4 kmh 30.06 in1017.9 mb 0.00 in0.0 mm 0.00 in/hr0.0 mm/hr 0.00 in0.0 mm
12:58 AM 48.8°F9.3°C 29.4°F-1.4°C 47% 6.3 mph 10.1 kmh 8.3 mph13.4 kmh 30.06 in1017.9 mb 0.00 in0.0 mm 0.00 in/hr0.0 mm/hr 0.00 in0.0 mm
01:04 AM 49.0°F9.4°C 29.5°F-1.4°C 47% 3.3 mph 5.3 kmh 7.2 mph11.6 kmh 30.06 in1017.9 mb 0.00 in0.0 mm 0.00 in/hr0.0 mm/hr 0.00 in0.0 mm
01:09 AM 48.8°F9.3°C 28.8°F-1.8°C 46% 1.6 mph NNW2.6 kmh NNW 7.2 mph11.6 kmh 30.06 in1017.9 mb 0.00 in0.0 mm 0.00 in/hr0.0 mm/hr 0.00 in0.0 mm
01:14 AM 48.6°F9.2°C 28.6°F-1.9°C 46% 0.8 mph 1.3 kmh 4.5 mph7.2 kmh 30.06 in1017.9 mb 0.00 in0.0 mm 0.00 in/hr0.0 mm/hr 0.00 in0.0 mm
01:19 AM 48.4°F9.1°C 29.0°F-1.7°C 47% 3.2 mph S5.1 kmh S 3.8 mph6.1 kmh 30.06 in1017.9 mb 0.00 in0.0 mm 0.00 in/hr0.0 mm/hr 0.00 in0.0 mm
01:24 AM 47.9°F8.8°C 28.4°F-2.0°C 47% 1.0 mph SSE1.6 kmh SSE 3.8 mph6.1 kmh 30.06 in1017.9 mb 0.00 in0.0 mm 0.00 in/hr0.0 mm/hr 0.00 in0.0 mm
01:29 AM 47.9°F8.8°C 28.4°F-2.0°C 47% 2.2 mph S3.5 kmh S 2.7 mph4.3 kmh 30.06 in1017.9 mb 0.00 in0.0 mm 0.00 in/hr0.0 mm/hr 0.00 in0.0 mm
01:34 AM 47.5°F8.6°C 28.7°F-1.8°C 48% 4.1 mph SE6.6 kmh SE 4.7 mph7.6 kmh 30.06 in1017.9 mb 0.00 in0.0 mm 0.00 in/hr0.0 mm/hr 0.00 in0.0 mm
01:39 AM 47.2°F8.4°C 28.9°F-1.7°C 49% 2.0 mph ESE3.2 kmh ESE 7.4 mph11.9 kmh 30.06 in1017.9 mb 0.00 in0.0 mm 0.00 in/hr0.0 mm/hr 0.00 in0.0 mm
01:44 AM 47.2°F8.4°C 29.4°F-1.4°C 50% 3.9 mph E6.3 kmh E 7.4 mph11.9 kmh 30.06 in1017.9 mb 0.00 in0.0 mm 0.00 in/hr0.0 mm/hr 0.00 in0.0 mm
01:49 AM 47.2°F8.4°C 29.9°F-1.2°C 51% 4.7 mph E7.6 kmh E 5.4 mph8.7 kmh 30.06 in1017.9 mb 0.00 in0.0 mm 0.00 in/hr0.0 mm/hr 0.00 in0.0 mm
01:54 AM 47.2°F8.4°C 29.9°F-1.2°C 51% 4.5 mph ESE7.2 kmh ESE 5.4 mph8.7 kmh 30.06 in1017.9 mb 0.00 in0.0 mm 0.00 in/hr0.0 mm/hr 0.00 in0.0 mm
01:59 AM 47.0°F8.3°C 30.3°F-0.9°C 52% 4.7 mph E7.6 kmh E 5.4 mph8.7 kmh 30.06 in1017.9 mb 0.00 in0.0 mm 0.00 in/hr0.0 mm/hr 0.00 in0.0 mm
02:04 AM 47.0°F8.3°C 30.7°F-0.7°C 53% 4.3 mph E6.9 kmh E 6.3 mph10.1 kmh 30.06 in1017.9 mb 0.00 in0.0 mm 0.00 in/hr0.0 mm/hr 0.00 in0.0 mm
02:09 AM 47.0°F8.3°C 31.6°F-0.2°C 55% 4.6 mph E7.4 kmh E 6.3 mph10.1 kmh 30.06 in1017.9 mb 0.00 in0.0 mm 0.00 in/hr0.0 mm/hr 0.00 in0.0 mm
02:14 AM 47.2°F8.4°C 31.3°F-0.4°C 54% 3.7 mph E6.0 kmh E 4.7 mph7.6 kmh 30.06 in1017.9 mb 0.00 in0.0 mm 0.00 in/hr0.0 mm/hr 0.00 in0.0 mm
02:19 AM 47.2°F8.4°C 31.3°F-0.4°C 54% 1.7 mph E2.7 kmh E 4.7 mph7.6 kmh 30.06 in1017.9 mb 0.00 in0.0 mm 0.00 in/hr0.0 mm/hr 0.00 in0.0 mm
02:24 AM 47.3°F8.5°C 31.4°F-0.3°C 54% 2.1 mph E3.4 kmh E 3.1 mph5.0 kmh 30.06 in1017.9 mb 0.00 in0.0 mm 0.00 in/hr0.0 mm/hr 0.00 in0.0 mm
02:29 AM 47.2°F8.4°C 31.3°F-0.4°C 54% 0.9 mph E1.4 kmh E 3.4 mph5.5 kmh 30.06 in1017.9 mb 0.00 in0.0 mm 0.00 in/hr0.0 mm/hr 0.00 in0.0 mm
02:34 AM 47.3°F8.5°C 31.4°F-0.3°C 54% 1.7 mph E2.7 kmh E 3.4 mph5.5 kmh 30.06 in1017.9 mb 0.00 in0.0 mm 0.00 in/hr0.0 mm/hr 0.00 in0.0 mm
02:39 AM 47.3°F8.5°C 31.9°F-0.1°C 55% 2.4 mph E3.9 kmh E 2.7 mph4.3 kmh 30.07 in1018.3 mb 0.00 in0.0 mm 0.00 in/hr0.0 mm/hr 0.00 in0.0 mm
02:44 AM 47.2°F8.4°C 31.3°F-0.4°C 54% 0.4 mph E0.6 kmh E 2.7 mph4.3 kmh 30.07 in1018.3 mb 0.00 in0.0 mm 0.00 in/hr0.0 mm/hr 0.00 in0.0 mm
02:49 AM 46.8°F8.2°C 31.0°F-0.6°C 54% 0.2 mph E0.3 kmh E 1.6 mph2.6 kmh 30.07 in1018.3 mb 0.00 in0.0 mm 0.00 in/hr0.0 mm/hr 0.00 in0.0 mm
02:54 AM 46.6°F8.1°C 30.8°F-0.7°C 54% 0.5 mph 0.8 kmh 1.3 mph2.1 kmh 30.07 in1018.3 mb 0.00 in0.0 mm 0.00 in/hr0.0 mm/hr 0.00 in0.0 mm
03:00 AM 46.4°F8.0°C 30.2°F-1.0°C 53% 2.4 mph 3.9 kmh 2.9 mph4.7 kmh 30.07 in1018.3 mb 0.00 in0.0 mm 0.00 in/hr0.0 mm/hr 0.00 in0.0 mm
03:04 AM 46.4°F8.0°C 30.6°F-0.8°C 54% 2.5 mph 4.0 kmh 2.9 mph4.7 kmh 30.07 in1018.3 mb 0.00 in0.0 mm 0.00 in/hr0.0 mm/hr 0.00 in0.0 mm
03:09 AM 46.6°F8.1°C 31.2°F-0.4°C 55% 0.7 mph 1.1 kmh 2.9 mph4.7 kmh 30.07 in1018.3 mb 0.00 in0.0 mm 0.00 in/hr0.0 mm/hr 0.00 in0.0 mm
03:14 AM 46.4°F8.0°C 30.6°F-0.8°C 54% 1.2 mph 1.9 kmh 2.2 mph3.5 kmh 30.07 in1018.3 mb 0.00 in0.0 mm 0.00 in/hr0.0 mm/hr 0.00 in0.0 mm
03:19 AM 46.3°F7.9°C 30.4°F-0.9°C 54% 0.8 mph N1.3 kmh N 2.2 mph3.5 kmh 30.07 in1018.3 mb 0.00 in0.0 mm 0.00 in/hr0.0 mm/hr 0.00 in0.0 mm
03:24 AM 46.1°F7.8°C 30.2°F-1.0°C 54% 0.3 mph NE0.5 kmh NE 2.2 mph3.5 kmh 30.07 in1018.3 mb 0.00 in0.0 mm 0.00 in/hr0.0 mm/hr 0.00 in0.0 mm
03:29 AM 46.1°F7.8°C 30.7°F-0.7°C 55% Calm Calm 0.4 mph0.6 kmh 30.07 in1018.3 mb 0.00 in0.0 mm 0.00 in/hr0.0 mm/hr 0.00 in0.0 mm
03:34 AM 46.1°F7.8°C 31.1°F-0.5°C 56% Calm Calm 0.2 mph0.3 kmh 30.07 in1018.3 mb 0.00 in0.0 mm 0.00 in/hr0.0 mm/hr 0.00 in0.0 mm
03:39 AM 46.1°F7.8°C 30.7°F-0.7°C 55% Calm Calm -- 30.07 in1018.3 mb 0.00 in0.0 mm 0.00 in/hr0.0 mm/hr 0.00 in0.0 mm
03:44 AM 45.9°F7.7°C 31.1°F-0.5°C 56% 0.2 mph 0.3 kmh 0.2 mph0.3 kmh 30.07 in1018.3 mb 0.00 in0.0 mm 0.00 in/hr0.0 mm/hr 0.00 in0.0 mm
03:49 AM 45.7°F7.6°C 30.4°F-0.9°C 55% Calm Calm 0.4 mph0.6 kmh 30.07 in1018.3 mb 0.00 in0.0 mm 0.00 in/hr0.0 mm/hr 0.00 in0.0 mm
03:54 AM 45.7°F7.6°C 30.4°F-0.9°C 55% 1.2 mph 1.9 kmh 1.8 mph2.9 kmh 30.07 in1018.3 mb 0.00 in0.0 mm 0.00 in/hr0.0 mm/hr 0.00 in0.0 mm
04:00 AM 45.4°F7.4°C 30.5°F-0.8°C 56% 3.8 mph NNE6.1 kmh NNE 4.3 mph6.9 kmh 30.07 in1018.3 mb 0.00 in0.0 mm 0.00 in/hr0.0 mm/hr 0.00 in0.0 mm
04:05 AM 44.8°F7.1°C 30.5°F-0.8°C 57% 4.1 mph NNE6.6 kmh NNE 4.7 mph7.6 kmh 30.07 in1018.3 mb 0.00 in0.0 mm 0.00 in/hr0.0 mm/hr 0.00 in0.0 mm
04:10 AM 44.6°F7.0°C 30.3°F-0.9°C 57% 4.3 mph 6.9 kmh 4.7 mph7.6 kmh 30.07 in1018.3 mb 0.00 in0.0 mm 0.00 in/hr0.0 mm/hr 0.00 in0.0 mm
04:15 AM 44.6°F7.0°C 30.3°F-0.9°C 57% 2.3 mph NNE3.7 kmh NNE 4.7 mph7.6 kmh 30.07 in1018.3 mb 0.00 in0.0 mm 0.00 in/hr0.0 mm/hr 0.00 in0.0 mm
04:20 AM 44.6°F7.0°C 30.3°F-0.9°C 57% 3.3 mph NNE5.3 kmh NNE 3.8 mph6.1 kmh 30.07 in1018.3 mb 0.00 in0.0 mm 0.00 in/hr0.0 mm/hr 0.00 in0.0 mm
04:24 AM 44.5°F6.9°C 30.2°F-1.0°C 57% 3.6 mph NNE5.8 kmh NNE 3.8 mph6.1 kmh 30.08 in1018.6 mb 0.00 in0.0 mm 0.00 in/hr0.0 mm/hr 0.00 in0.0 mm
04:29 AM 44.3°F6.8°C 30.0°F-1.1°C 57% 3.4 mph NNE5.5 kmh NNE 4.0 mph6.4 kmh 30.08 in1018.6 mb 0.00 in0.0 mm 0.00 in/hr0.0 mm/hr 0.00 in0.0 mm
04:34 AM 44.3°F6.8°C 30.0°F-1.1°C 57% 2.7 mph NNE4.3 kmh NNE 4.0 mph6.4 kmh 30.08 in1018.6 mb 0.00 in0.0 mm 0.00 in/hr0.0 mm/hr 0.00 in0.0 mm
04:39 AM 44.3°F6.8°C 30.0°F-1.1°C 57% 1.2 mph NNE1.9 kmh NNE 3.4 mph5.5 kmh 30.08 in1018.6 mb 0.00 in0.0 mm 0.00 in/hr0.0 mm/hr 0.00 in0.0 mm
04:44 AM 43.7°F6.5°C 29.0°F-1.7°C 56% 1.2 mph NNE1.9 kmh NNE 2.2 mph3.5 kmh 30.08 in1018.6 mb 0.00 in0.0 mm 0.00 in/hr0.0 mm/hr 0.00 in0.0 mm
04:49 AM 43.4°F6.3°C 29.1°F-1.6°C 57% 2.5 mph NNE4.0 kmh NNE 3.1 mph5.0 kmh 30.08 in1018.6 mb 0.00 in0.0 mm 0.00 in/hr0.0 mm/hr 0.00 in0.0 mm
04:54 AM 43.2°F6.2°C 29.3°F-1.5°C 58% 0.9 mph NNE1.4 kmh NNE 3.1 mph5.0 kmh 30.08 in1018.6 mb 0.00 in0.0 mm 0.00 in/hr0.0 mm/hr 0.00 in0.0 mm
05:00 AM 43.0°F6.1°C 29.2°F-1.6°C 58% 1.9 mph NNE3.1 kmh NNE 2.2 mph3.5 kmh 30.08 in1018.6 mb 0.00 in0.0 mm 0.00 in/hr0.0 mm/hr 0.00 in0.0 mm
05:05 AM 42.8°F6.0°C 29.0°F-1.7°C 58% 2.3 mph 3.7 kmh 2.9 mph4.7 kmh 30.08 in1018.6 mb 0.00 in0.0 mm 0.00 in/hr0.0 mm/hr 0.00 in0.0 mm
05:10 AM 42.5°F5.8°C 28.7°F-1.8°C 58% 0.7 mph 1.1 kmh 2.9 mph4.7 kmh 30.08 in1018.6 mb 0.00 in0.0 mm 0.00 in/hr0.0 mm/hr 0.00 in0.0 mm
05:15 AM 42.1°F5.6°C 28.8°F-1.8°C 59% 0.3 mph NNE0.5 kmh NNE 2.0 mph3.2 kmh 30.08 in1018.6 mb 0.00 in0.0 mm 0.00 in/hr0.0 mm/hr 0.00 in0.0 mm
05:20 AM 41.9°F5.5°C 28.6°F-1.9°C 59% 1.1 mph SSW1.8 kmh SSW 1.3 mph2.1 kmh 30.09 in1019.0 mb 0.00 in0.0 mm 0.00 in/hr0.0 mm/hr 0.00 in0.0 mm
05:25 AM 41.6°F5.3°C 28.7°F-1.8°C 60% 0.4 mph SE0.6 kmh SE 1.8 mph2.9 kmh 30.09 in1019.0 mb 0.00 in0.0 mm 0.00 in/hr0.0 mm/hr 0.00 in0.0 mm
05:30 AM 41.2°F5.1°C 28.5°F-1.9°C 60% Calm Calm 1.8 mph2.9 kmh 30.09 in1019.0 mb 0.00 in0.0 mm 0.00 in/hr0.0 mm/hr 0.00 in0.0 mm
05:35 AM 41.0°F5.0°C 28.3°F-2.1°C 60% 0.8 mph ENE1.3 kmh ENE 1.1 mph1.8 kmh 30.09 in1019.0 mb 0.00 in0.0 mm 0.00 in/hr0.0 mm/hr 0.00 in0.0 mm
05:40 AM 40.9°F4.9°C 28.4°F-2.0°C 61% 1.1 mph 1.8 kmh 1.6 mph2.6 kmh 30.09 in1019.0 mb 0.00 in0.0 mm 0.00 in/hr0.0 mm/hr 0.00 in0.0 mm
05:45 AM 40.7°F4.8°C 28.3°F-2.1°C 61% 1.6 mph 2.6 kmh 2.2 mph3.5 kmh 30.09 in1019.0 mb 0.00 in0.0 mm 0.00 in/hr0.0 mm/hr 0.00 in0.0 mm
05:49 AM 40.5°F4.7°C 28.1°F-2.2°C 61% 0.4 mph 0.6 kmh 2.2 mph3.5 kmh 30.09 in1019.0 mb 0.00 in0.0 mm 0.00 in/hr0.0 mm/hr 0.00 in0.0 mm
05:54 AM 40.3°F4.6°C 28.3°F-2.1°C 62% 2.3 mph NNE3.7 kmh NNE 3.4 mph5.5 kmh 30.09 in1019.0 mb 0.00 in0.0 mm 0.00 in/hr0.0 mm/hr 0.00 in0.0 mm
06:00 AM 40.9°F4.9°C 29.3°F-1.5°C 63% 2.2 mph 3.5 kmh 3.8 mph6.1 kmh 30.09 in1019.0 mb 0.00 in0.0 mm 0.00 in/hr0.0 mm/hr 0.00 in0.0 mm
06:05 AM 41.2°F5.1°C 29.5°F-1.4°C 63% 0.3 mph NE0.5 kmh NE 3.8 mph6.1 kmh 30.09 in1019.0 mb 0.00 in0.0 mm 0.00 in/hr0.0 mm/hr 0.00 in0.0 mm
06:10 AM 41.0°F5.0°C 29.8°F-1.2°C 64% 1.0 mph E1.6 kmh E 1.8 mph2.9 kmh 30.09 in1019.0 mb 0.00 in0.0 mm 0.00 in/hr0.0 mm/hr 0.00 in0.0 mm
06:15 AM 40.7°F4.8°C 29.1°F-1.6°C 63% 2.3 mph N3.7 kmh N 2.9 mph4.7 kmh 30.09 in1019.0 mb 0.00 in0.0 mm 0.00 in/hr0.0 mm/hr 0.00 in0.0 mm
06:20 AM 40.7°F4.8°C 29.1°F-1.6°C 63% 0.7 mph 1.1 kmh 3.1 mph5.0 kmh 30.09 in1019.0 mb 0.00 in0.0 mm 0.00 in/hr0.0 mm/hr 0.00 in0.0 mm
06:25 AM 40.7°F4.8°C 29.4°F-1.4°C 64% 0.4 mph 0.6 kmh 3.1 mph5.0 kmh 30.10 in1019.3 mb 0.00 in0.0 mm 0.00 in/hr0.0 mm/hr 0.00 in0.0 mm
06:30 AM 40.7°F4.8°C 29.8°F-1.2°C 65% 0.8 mph 1.3 kmh 1.1 mph1.8 kmh 30.10 in1019.3 mb 0.00 in0.0 mm 0.00 in/hr0.0 mm/hr 0.00 in0.0 mm
06:35 AM 40.9°F4.9°C 30.0°F-1.1°C 65% 0.8 mph 1.3 kmh 1.1 mph1.8 kmh 30.10 in1019.3 mb 0.00 in0.0 mm 0.00 in/hr0.0 mm/hr 0.00 in0.0 mm
06:40 AM 41.0°F5.0°C 30.2°F-1.0°C 65% 0.3 mph 0.5 kmh 0.9 mph1.4 kmh 30.10 in1019.3 mb 0.00 in0.0 mm 0.00 in/hr0.0 mm/hr 0.00 in0.0 mm
06:45 AM 41.2°F5.1°C 30.7°F-0.7°C 66% Calm Calm 0.4 mph0.6 kmh 30.10 in1019.3 mb 0.00 in0.0 mm 0.00 in/hr0.0 mm/hr 0.00 in0.0 mm
06:50 AM 41.6°F5.3°C 31.1°F-0.5°C 66% Calm Calm 0.4 mph0.6 kmh 30.10 in1019.3 mb 0.00 in0.0 mm 0.00 in/hr0.0 mm/hr 0.00 in0.0 mm
06:55 AM 41.9°F5.5°C 31.8°F-0.1°C 67% Calm Calm -- 30.10 in1019.3 mb 0.00 in0.0 mm 0.00 in/hr0.0 mm/hr 0.00 in0.0 mm
07:00 AM 42.3°F5.7°C 32.1°F0.1°C 67% Calm Calm -- 30.10 in1019.3 mb 0.00 in0.0 mm 0.00 in/hr0.0 mm/hr 0.00 in0.0 mm
07:05 AM 42.8°F6.0°C 32.7°F0.4°C 67% 0.4 mph 0.6 kmh 0.4 mph0.6 kmh 30.10 in1019.3 mb 0.00 in0.0 mm 0.00 in/hr0.0 mm/hr 0.00 in0.0 mm
07:10 AM 43.4°F6.3°C 33.1°F0.6°C 67% Calm Calm 0.4 mph0.6 kmh 30.11 in1019.6 mb 0.00 in0.0 mm 0.00 in/hr0.0 mm/hr 0.00 in0.0 mm
07:15 AM 43.9°F6.6°C 33.7°F0.9°C 67% Calm Calm 0.2 mph0.3 kmh 30.11 in1019.6 mb 0.00 in0.0 mm 0.00 in/hr0.0 mm/hr 0.00 in0.0 mm
07:20 AM 44.6°F7.0°C 34.8°F1.6°C 68% Calm Calm -- 30.11 in1019.6 mb 0.00 in0.0 mm 0.00 in/hr0.0 mm/hr 0.00 in0.0 mm
07:25 AM 45.5°F7.5°C 35.2°F1.8°C 67% Calm Calm -- 30.11 in1019.6 mb 0.00 in0.0 mm 0.00 in/hr0.0 mm/hr 0.00 in0.0 mm
07:30 AM 46.3°F7.9°C 35.9°F2.2°C 67% Calm Calm -- 30.11 in1019.6 mb 0.00 in0.0 mm 0.00 in/hr0.0 mm/hr 0.00 in0.0 mm
07:35 AM 47.0°F8.3°C 36.2°F2.3°C 66% Calm Calm -- 30.11 in1019.6 mb 0.00 in0.0 mm 0.00 in/hr0.0 mm/hr 0.00 in0.0 mm
07:40 AM 47.9°F8.8°C 37.0°F2.8°C 66% 0.2 mph ESE0.3 kmh ESE 0.2 mph0.3 kmh 30.11 in1019.6 mb 0.00 in0.0 mm 0.00 in/hr0.0 mm/hr 0.00 in0.0 mm
07:45 AM 48.8°F9.3°C 37.5°F3.1°C 65% 0.4 mph ESE0.6 kmh ESE 0.4 mph0.6 kmh 30.11 in1019.6 mb 0.00 in0.0 mm 0.00 in/hr0.0 mm/hr 0.00 in0.0 mm
07:50 AM 50.0°F10.0°C 38.4°F3.6°C 64% 1.0 mph E1.6 kmh E 1.6 mph2.6 kmh 30.11 in1019.6 mb 0.00 in0.0 mm 0.00 in/hr0.0 mm/hr 0.00 in0.0 mm
07:55 AM 51.1°F10.6°C 39.3°F4.1°C 64% Calm Calm 1.6 mph2.6 kmh 30.11 in1019.6 mb 0.00 in0.0 mm 0.00 in/hr0.0 mm/hr 0.00 in0.0 mm
08:01 AM 52.2°F11.2°C 40.0°F4.4°C 63% 0.4 mph NNE0.6 kmh NNE 0.4 mph0.6 kmh 30.12 in1020.0 mb 0.00 in0.0 mm 0.00 in/hr0.0 mm/hr 0.00 in0.0 mm
08:06 AM 53.3°F11.8°C 40.1°F4.5°C 61% 1.6 mph ENE2.6 kmh ENE 2.7 mph4.3 kmh 30.12 in1020.0 mb 0.00 in0.0 mm 0.00 in/hr0.0 mm/hr 0.00 in0.0 mm
08:11 AM 54.4°F12.4°C 40.3°F4.6°C 59% 2.2 mph NE3.5 kmh NE 2.9 mph4.7 kmh 30.12 in1020.0 mb 0.00 in0.0 mm 0.00 in/hr0.0 mm/hr 0.00 in0.0 mm
08:15 AM 55.1°F12.8°C 40.5°F4.7°C 58% 0.3 mph E0.5 kmh E 2.9 mph4.7 kmh 30.12 in1020.0 mb 0.00 in0.0 mm 0.00 in/hr0.0 mm/hr 0.00 in0.0 mm
08:20 AM 56.2°F13.4°C 41.0°F5.0°C 57% 1.6 mph ENE2.6 kmh ENE 2.5 mph4.0 kmh 30.12 in1020.0 mb 0.00 in0.0 mm 0.00 in/hr0.0 mm/hr 0.00 in0.0 mm
08:25 AM 57.1°F13.9°C 41.0°F5.0°C 55% 1.3 mph ENE2.1 kmh ENE 2.5 mph4.0 kmh 30.12 in1020.0 mb 0.00 in0.0 mm 0.00 in/hr0.0 mm/hr 0.00 in0.0 mm
08:30 AM 58.0°F14.4°C 41.9°F5.5°C 55% 1.4 mph E2.3 kmh E 2.0 mph3.2 kmh 30.12 in1020.0 mb 0.00 in0.0 mm 0.00 in/hr0.0 mm/hr 0.00 in0.0 mm
08:35 AM 59.0°F15.0°C 42.8°F6.0°C 55% 0.4 mph ENE0.6 kmh ENE 2.0 mph3.2 kmh 30.12 in1020.0 mb 0.00 in0.0 mm 0.00 in/hr0.0 mm/hr 0.00 in0.0 mm
08:40 AM 59.8°F15.4°C 42.1°F5.6°C 52% 0.4 mph 0.6 kmh 0.7 mph1.1 kmh 30.12 in1020.0 mb 0.00 in0.0 mm 0.00 in/hr0.0 mm/hr 0.00 in0.0 mm
08:45 AM 60.7°F15.9°C 41.9°F5.5°C 50% Calm Calm 1.1 mph1.8 kmh 30.12 in1020.0 mb 0.00 in0.0 mm 0.00 in/hr0.0 mm/hr 0.00 in0.0 mm
08:50 AM 61.4°F16.3°C 42.6°F5.9°C 50% Calm Calm 1.1 mph1.8 kmh 30.12 in1020.0 mb 0.00 in0.0 mm 0.00 in/hr0.0 mm/hr 0.00 in0.0 mm
08:55 AM 62.3°F16.8°C 43.4°F6.3°C 50% 0.4 mph SSE0.6 kmh SSE 0.7 mph1.1 kmh 30.12 in1020.0 mb 0.00 in0.0 mm 0.00 in/hr0.0 mm/hr 0.00 in0.0 mm
09:01 AM 63.4°F17.4°C 43.2°F6.2°C 48% 1.6 mph WSW2.6 kmh WSW 2.2 mph3.5 kmh 30.12 in1020.0 mb 0.00 in0.0 mm 0.00 in/hr0.0 mm/hr 0.00 in0.0 mm
09:06 AM 63.7°F17.6°C 43.0°F6.1°C 47% 1.8 mph SW2.9 kmh SW 2.7 mph4.3 kmh 30.12 in1020.0 mb 0.00 in0.0 mm 0.00 in/hr0.0 mm/hr 0.00 in0.0 mm
09:11 AM 64.3°F17.9°C 42.3°F5.7°C 45% 1.1 mph NNW1.8 kmh NNW 2.7 mph4.3 kmh 30.12 in1020.0 mb 0.00 in0.0 mm 0.00 in/hr0.0 mm/hr 0.00 in0.0 mm
09:16 AM 65.0°F18.3°C 43.0°F6.1°C 45% 0.2 mph W0.3 kmh W 1.3 mph2.1 kmh 30.12 in1020.0 mb 0.00 in0.0 mm 0.00 in/hr0.0 mm/hr 0.00 in0.0 mm
09:21 AM 66.2°F19.0°C 44.2°F6.8°C 45% 1.0 mph SSE1.6 kmh SSE 1.8 mph2.9 kmh 30.12 in1020.0 mb 0.00 in0.0 mm 0.00 in/hr0.0 mm/hr 0.00 in0.0 mm
09:26 AM 67.0°F19.4°C 44.3°F6.8°C 44% 2.3 mph SE3.7 kmh SE 3.1 mph5.0 kmh 30.12 in1020.0 mb 0.00 in0.0 mm 0.00 in/hr0.0 mm/hr 0.00 in0.0 mm
09:31 AM 68.0°F20.0°C 44.7°F7.1°C 43% 1.6 mph SSW2.6 kmh SSW 3.1 mph5.0 kmh 30.12 in1020.0 mb 0.00 in0.0 mm 0.00 in/hr0.0 mm/hr 0.00 in0.0 mm
09:36 AM 68.8°F20.4°C 45.3°F7.4°C 43% 2.6 mph WSW4.2 kmh WSW 2.9 mph4.7 kmh 30.12 in1020.0 mb 0.00 in0.0 mm 0.00 in/hr0.0 mm/hr 0.00 in0.0 mm
09:41 AM 68.9°F20.5°C 44.8°F7.1°C 42% 2.3 mph W3.7 kmh W 4.0 mph6.4 kmh 30.12 in1020.0 mb 0.00 in0.0 mm 0.00 in/hr0.0 mm/hr 0.00 in0.0 mm
09:45 AM 69.3°F20.7°C 45.2°F7.3°C 42% 0.4 mph 0.6 kmh 4.0 mph6.4 kmh 30.12 in1020.0 mb 0.00 in0.0 mm 0.00 in/hr0.0 mm/hr 0.00 in0.0 mm
09:50 AM 69.7°F20.9°C 44.3°F6.8°C 40% 3.6 mph WSW5.8 kmh WSW 5.1 mph8.2 kmh 30.12 in1020.0 mb 0.00 in0.0 mm 0.00 in/hr0.0 mm/hr 0.00 in0.0 mm
09:55 AM 70.6°F21.4°C 44.4°F6.9°C 39% 1.6 mph WSW2.6 kmh WSW 5.1 mph8.2 kmh 30.12 in1020.0 mb 0.00 in0.0 mm 0.00 in/hr0.0 mm/hr 0.00 in0.0 mm
10:01 AM 70.9°F21.6°C 40.2°F4.6°C 33% 5.1 mph N8.2 kmh N 6.0 mph9.7 kmh 30.12 in1020.0 mb 0.00 in0.0 mm 0.00 in/hr0.0 mm/hr 0.00 in0.0 mm
10:06 AM 70.9°F21.6°C 39.5°F4.2°C 32% 2.6 mph ENE4.2 kmh ENE 6.0 mph9.7 kmh 30.12 in1020.0 mb 0.00 in0.0 mm 0.00 in/hr0.0 mm/hr 0.00 in0.0 mm
10:11 AM 71.3°F21.8°C 40.6°F4.8°C 33% 1.8 mph ESE2.9 kmh ESE 8.5 mph13.7 kmh 30.12 in1020.0 mb 0.00 in0.0 mm 0.00 in/hr0.0 mm/hr 0.00 in0.0 mm
10:16 AM 72.4°F22.4°C 42.3°F5.7°C 34% 4.4 mph NE7.1 kmh NE 8.5 mph13.7 kmh 30.12 in1020.0 mb 0.00 in0.0 mm 0.00 in/hr0.0 mm/hr 0.00 in0.0 mm
10:21 AM 72.9°F22.7°C 41.9°F5.5°C 33% 2.3 mph ESE3.7 kmh ESE 5.4 mph8.7 kmh 30.12 in1020.0 mb 0.00 in0.0 mm 0.00 in/hr0.0 mm/hr 0.00 in0.0 mm
10:26 AM 73.8°F23.2°C 43.5°F6.4°C 34% 2.7 mph SSE4.3 kmh SSE 4.5 mph7.2 kmh 30.11 in1019.6 mb 0.00 in0.0 mm 0.00 in/hr0.0 mm/hr 0.00 in0.0 mm
10:31 AM 74.5°F23.6°C 43.4°F6.3°C 33% 3.3 mph SE5.3 kmh SE 4.7 mph7.6 kmh 30.11 in1019.6 mb 0.00 in0.0 mm 0.00 in/hr0.0 mm/hr 0.00 in0.0 mm
10:36 AM 75.6°F24.2°C 45.1°F7.3°C 34% 3.3 mph SSE5.3 kmh SSE 5.6 mph9.0 kmh 30.11 in1019.6 mb 0.00 in0.0 mm 0.00 in/hr0.0 mm/hr 0.00 in0.0 mm
10:41 AM 76.3°F24.6°C 44.3°F6.8°C 32% 4.3 mph SSW6.9 kmh SSW 6.7 mph10.8 kmh 30.11 in1019.6 mb 0.00 in0.0 mm 0.00 in/hr0.0 mm/hr 0.00 in0.0 mm
10:46 AM 76.7°F24.8°C 43.8°F6.6°C 31% 2.9 mph SW4.7 kmh SW 6.7 mph10.8 kmh 30.11 in1019.6 mb 0.00 in0.0 mm 0.00 in/hr0.0 mm/hr 0.00 in0.0 mm
10:51 AM 76.7°F24.8°C 43.0°F6.1°C 30% 1.5 mph WSW2.4 kmh WSW 4.7 mph7.6 kmh 30.11 in1019.6 mb 0.00 in0.0 mm 0.00 in/hr0.0 mm/hr 0.00 in0.0 mm
10:56 AM 76.7°F24.8°C 43.0°F6.1°C 30% 0.9 mph SW1.4 kmh SW 2.9 mph4.7 kmh 30.11 in1019.6 mb 0.00 in0.0 mm 0.00 in/hr0.0 mm/hr 0.00 in0.0 mm
11:01 AM 76.5°F24.7°C 41.9°F5.5°C 29% 0.8 mph NW1.3 kmh NW 3.6 mph5.8 kmh 30.11 in1019.6 mb 0.00 in0.0 mm 0.00 in/hr0.0 mm/hr 0.00 in0.0 mm
11:06 AM 76.7°F24.8°C 41.0°F5.0°C 28% 3.2 mph NNE5.1 kmh NNE 4.0 mph6.4 kmh 30.11 in1019.6 mb 0.00 in0.0 mm 0.00 in/hr0.0 mm/hr 0.00 in0.0 mm
11:11 AM 76.7°F24.8°C 42.0°F5.6°C 29% 1.5 mph SW2.4 kmh SW 4.0 mph6.4 kmh 30.11 in1019.6 mb 0.00 in0.0 mm 0.00 in/hr0.0 mm/hr 0.00 in0.0 mm
11:16 AM 77.4°F25.2°C 41.6°F5.3°C 28% 4.1 mph WSW6.6 kmh WSW 4.7 mph7.6 kmh 30.11 in1019.6 mb 0.00 in0.0 mm 0.00 in/hr0.0 mm/hr 0.00 in0.0 mm
11:21 AM 76.9°F24.9°C 39.1°F3.9°C 26% 2.8 mph WSW4.5 kmh WSW 7.2 mph11.6 kmh 30.11 in1019.6 mb 0.00 in0.0 mm 0.00 in/hr0.0 mm/hr 0.00 in0.0 mm
11:26 AM 77.4°F25.2°C 42.7°F5.9°C 29% 2.5 mph WSW4.0 kmh WSW 7.2 mph11.6 kmh 30.11 in1019.6 mb 0.00 in0.0 mm 0.00 in/hr0.0 mm/hr 0.00 in0.0 mm
11:31 AM 77.4°F25.2°C 39.5°F4.2°C 26% 4.4 mph NW7.1 kmh NW 7.4 mph11.9 kmh 30.11 in1019.6 mb 0.00 in0.0 mm 0.00 in/hr0.0 mm/hr 0.00 in0.0 mm
11:36 AM 77.6°F25.3°C 42.8°F6.0°C 29% 5.2 mph S8.4 kmh S 8.5 mph13.7 kmh 30.11 in1019.6 mb 0.00 in0.0 mm 0.00 in/hr0.0 mm/hr 0.00 in0.0 mm
11:41 AM 78.8°F26.0°C 43.7°F6.5°C 29% 2.0 mph SW3.2 kmh SW 8.5 mph13.7 kmh 30.10 in1019.3 mb 0.00 in0.0 mm 0.00 in/hr0.0 mm/hr 0.00 in0.0 mm
11:46 AM 79.9°F26.6°C 43.8°F6.6°C 28% 1.2 mph NW1.9 kmh NW 4.9 mph7.9 kmh 30.10 in1019.3 mb 0.00 in0.0 mm 0.00 in/hr0.0 mm/hr 0.00 in0.0 mm
11:51 AM 79.9°F26.6°C 42.7°F5.9°C 27% 3.0 mph WSW4.8 kmh WSW 5.1 mph8.2 kmh 30.10 in1019.3 mb 0.00 in0.0 mm 0.00 in/hr0.0 mm/hr 0.00 in0.0 mm
11:56 AM 80.3°F26.8°C 41.9°F5.5°C 26% 0.6 mph SSW1.0 kmh SSW 5.1 mph8.2 kmh 30.10 in1019.3 mb 0.00 in0.0 mm 0.00 in/hr0.0 mm/hr 0.00 in0.0 mm
12:01 PM 80.6°F27.0°C 41.2°F5.1°C 25% 4.3 mph ENE6.9 kmh ENE 5.8 mph9.3 kmh 30.10 in1019.3 mb 0.00 in0.0 mm 0.00 in/hr0.0 mm/hr 0.00 in0.0 mm
12:06 PM 80.5°F26.9°C 41.0°F5.0°C 25% 0.9 mph NNE1.4 kmh NNE 5.8 mph9.3 kmh 30.09 in1019.0 mb 0.00 in0.0 mm 0.00 in/hr0.0 mm/hr 0.00 in0.0 mm
12:11 PM 80.1°F26.7°C 39.7°F4.3°C 24% 7.6 mph WSW12.2 kmh WSW 8.9 mph14.3 kmh 30.09 in1019.0 mb 0.00 in0.0 mm 0.00 in/hr0.0 mm/hr 0.00 in0.0 mm
12:16 PM 79.2°F26.2°C 38.9°F3.8°C 24% 6.7 mph WSW10.8 kmh WSW 10.5 mph16.9 kmh 30.09 in1019.0 mb 0.00 in0.0 mm 0.00 in/hr0.0 mm/hr 0.00 in0.0 mm
12:21 PM 79.6°F26.4°C 41.3°F5.2°C 26% 6.4 mph SW10.3 kmh SW 10.5 mph16.9 kmh 30.09 in1019.0 mb 0.00 in0.0 mm 0.00 in/hr0.0 mm/hr 0.00 in0.0 mm
12:26 PM 80.3°F26.8°C 44.0°F6.7°C 28% 4.2 mph SSW6.8 kmh SSW 9.8 mph15.8 kmh 30.09 in1019.0 mb 0.00 in0.0 mm 0.00 in/hr0.0 mm/hr 0.00 in0.0 mm
12:31 PM 81.5°F27.5°C 46.1°F7.8°C 29% 3.9 mph SW6.3 kmh SW 7.6 mph12.2 kmh 30.09 in1019.0 mb 0.00 in0.0 mm 0.00 in/hr0.0 mm/hr 0.00 in0.0 mm
12:36 PM 81.9°F27.7°C 43.3°F6.3°C 26% 7.2 mph SW11.6 kmh SW 11.4 mph18.3 kmh 30.09 in1019.0 mb 0.00 in0.0 mm 0.00 in/hr0.0 mm/hr 0.00 in0.0 mm
12:41 PM 81.7°F27.6°C 42.1°F5.6°C 25% 8.9 mph SW14.3 kmh SW 12.3 mph19.8 kmh 30.09 in1019.0 mb 0.00 in0.0 mm 0.00 in/hr0.0 mm/hr 0.00 in0.0 mm
12:46 PM 81.5°F27.5°C 41.9°F5.5°C 25% 2.9 mph W4.7 kmh W 12.3 mph19.8 kmh 30.09 in1019.0 mb 0.00 in0.0 mm 0.00 in/hr0.0 mm/hr 0.00 in0.0 mm
12:51 PM 81.7°F27.6°C 42.1°F5.6°C 25% 4.6 mph WSW7.4 kmh WSW 9.2 mph14.8 kmh 30.09 in1019.0 mb 0.00 in0.0 mm 0.00 in/hr0.0 mm/hr 0.00 in0.0 mm
12:56 PM 82.3°F27.9°C 43.6°F6.4°C 26% 3.4 mph WSW5.5 kmh WSW 9.2 mph14.8 kmh 30.08 in1018.6 mb 0.00 in0.0 mm 0.00 in/hr0.0 mm/hr 0.00 in0.0 mm
01:02 PM 82.8°F28.2°C 42.9°F6.1°C 25% 2.3 mph N3.7 kmh N 8.5 mph13.7 kmh 30.08 in1018.6 mb 0.00 in0.0 mm 0.00 in/hr0.0 mm/hr 0.00 in0.0 mm
01:07 PM 82.4°F28.0°C 43.8°F6.6°C 26% 3.6 mph SSE5.8 kmh SSE 9.4 mph15.1 kmh 30.08 in1018.6 mb 0.00 in0.0 mm 0.00 in/hr0.0 mm/hr 0.00 in0.0 mm
01:12 PM 83.3°F28.5°C 44.5°F6.9°C 26% 2.8 mph SE4.5 kmh SE 9.4 mph15.1 kmh 30.08 in1018.6 mb 0.00 in0.0 mm 0.00 in/hr0.0 mm/hr 0.00 in0.0 mm
01:17 PM 83.2°F28.4°C 41.1°F5.1°C 23% 9.6 mph WSW15.4 kmh WSW 12.8 mph20.6 kmh 30.08 in1018.6 mb 0.00 in0.0 mm 0.00 in/hr0.0 mm/hr 0.00 in0.0 mm
01:22 PM 82.3°F27.9°C 39.4°F4.1°C 22% 2.5 mph WSW4.0 kmh WSW 12.8 mph20.6 kmh 30.08 in1018.6 mb 0.00 in0.0 mm 0.00 in/hr0.0 mm/hr 0.00 in0.0 mm
01:27 PM 81.7°F27.6°C 39.0°F3.9°C 22% 8.1 mph W13.0 kmh W 10.5 mph16.9 kmh 30.07 in1018.3 mb 0.00 in0.0 mm 0.00 in/hr0.0 mm/hr 0.00 in0.0 mm
01:31 PM 81.9°F27.7°C 41.2°F5.1°C 24% 4.5 mph SW7.2 kmh SW 10.5 mph16.9 kmh 30.07 in1018.3 mb 0.00 in0.0 mm 0.00 in/hr0.0 mm/hr 0.00 in0.0 mm
01:36 PM 82.8°F28.2°C 39.8°F4.3°C 22% 4.2 mph W6.8 kmh W 9.2 mph14.8 kmh 30.07 in1018.3 mb 0.00 in0.0 mm 0.00 in/hr0.0 mm/hr 0.00 in0.0 mm
01:41 PM 83.9°F28.8°C 42.9°F6.1°C 24% 5.1 mph SW8.2 kmh SW 9.2 mph14.8 kmh 30.07 in1018.3 mb 0.00 in0.0 mm 0.00 in/hr0.0 mm/hr 0.00 in0.0 mm
01:46 PM 84.2°F29.0°C 43.1°F6.2°C 24% 4.8 mph SW7.7 kmh SW 9.2 mph14.8 kmh 30.07 in1018.3 mb 0.00 in0.0 mm 0.00 in/hr0.0 mm/hr 0.00 in0.0 mm
01:51 PM 84.8°F29.3°C 43.6°F6.4°C 24% 4.9 mph SSW7.9 kmh SSW 7.8 mph12.6 kmh 30.07 in1018.3 mb 0.00 in0.0 mm 0.00 in/hr0.0 mm/hr 0.00 in0.0 mm
01:56 PM 84.8°F29.3°C 42.5°F5.8°C 23% 7.6 mph SSW12.2 kmh SSW 9.2 mph14.8 kmh 30.07 in1018.3 mb 0.00 in0.0 mm 0.00 in/hr0.0 mm/hr 0.00 in0.0 mm
02:02 PM 85.1°F29.5°C 43.9°F6.6°C 24% 5.6 mph SSW9.0 kmh SSW 9.2 mph14.8 kmh 30.07 in1018.3 mb 0.00 in0.0 mm 0.00 in/hr0.0 mm/hr 0.00 in0.0 mm
02:07 PM 86.0°F30.0°C 43.6°F6.4°C 23% 8.7 mph SW14.0 kmh SW 8.9 mph14.3 kmh 30.07 in1018.3 mb 0.00 in0.0 mm 0.00 in/hr0.0 mm/hr 0.00 in0.0 mm
02:12 PM 86.0°F30.0°C 43.6°F6.4°C 23% 6.1 mph S9.8 kmh S 8.9 mph14.3 kmh 30.06 in1017.9 mb 0.00 in0.0 mm 0.00 in/hr0.0 mm/hr 0.00 in0.0 mm
02:17 PM 86.0°F30.0°C 43.6°F6.4°C 23% 4.9 mph SW7.9 kmh SW 9.2 mph14.8 kmh 30.06 in1017.9 mb 0.00 in0.0 mm 0.00 in/hr0.0 mm/hr 0.00 in0.0 mm
02:22 PM 86.2°F30.1°C 42.7°F5.9°C 22% 1.9 mph S3.1 kmh S 9.2 mph14.8 kmh 30.06 in1017.9 mb 0.00 in0.0 mm 0.00 in/hr0.0 mm/hr 0.00 in0.0 mm
02:27 PM 86.8°F30.4°C 44.2°F6.8°C 23% 6.6 mph S10.6 kmh S 8.5 mph13.7 kmh 30.06 in1017.9 mb 0.00 in0.0 mm 0.00 in/hr0.0 mm/hr 0.00 in0.0 mm
02:32 PM 87.1°F30.6°C 44.5°F6.9°C 23% 3.7 mph S6.0 kmh S 8.5 mph13.7 kmh 30.06 in1017.9 mb 0.00 in0.0 mm 0.00 in/hr0.0 mm/hr 0.00 in0.0 mm
02:37 PM 87.5°F30.8°C 44.8°F7.1°C 23% 7.6 mph S12.2 kmh S 11.0 mph17.7 kmh 30.06 in1017.9 mb 0.00 in0.0 mm 0.00 in/hr0.0 mm/hr 0.00 in0.0 mm
02:42 PM 87.8°F31.0°C 45.1°F7.3°C 23% 2.8 mph S4.5 kmh S 11.0 mph17.7 kmh 30.05 in1017.6 mb 0.00 in0.0 mm 0.00 in/hr0.0 mm/hr 0.00 in0.0 mm
02:47 PM 88.0°F31.1°C 44.2°F6.8°C 22% 6.7 mph S10.8 kmh S 11.2 mph18.0 kmh 30.06 in1017.9 mb 0.00 in0.0 mm 0.00 in/hr0.0 mm/hr 0.00 in0.0 mm
02:52 PM 88.0°F31.1°C 44.2°F6.8°C 22% 7.4 mph SE11.9 kmh SE 11.2 mph18.0 kmh 30.05 in1017.6 mb 0.00 in0.0 mm 0.00 in/hr0.0 mm/hr 0.00 in0.0 mm
02:57 PM 88.0°F31.1°C 45.3°F7.4°C 23% 7.3 mph SSE11.7 kmh SSE 11.4 mph18.3 kmh 30.05 in1017.6 mb 0.00 in0.0 mm 0.00 in/hr0.0 mm/hr 0.00 in0.0 mm
03:02 PM 88.0°F31.1°C 44.2°F6.8°C 22% 8.0 mph S12.9 kmh S 11.4 mph18.3 kmh 30.05 in1017.6 mb 0.00 in0.0 mm 0.00 in/hr0.0 mm/hr 0.00 in0.0 mm
03:07 PM 88.0°F31.1°C 44.2°F6.8°C 22% 3.2 mph S5.1 kmh S 11.4 mph18.3 kmh 30.05 in1017.6 mb 0.00 in0.0 mm 0.00 in/hr0.0 mm/hr 0.00 in0.0 mm
03:12 PM 88.4°F31.3°C 44.6°F7.0°C 22% 5.6 mph SSW9.0 kmh SSW 9.4 mph15.1 kmh 30.05 in1017.6 mb 0.00 in0.0 mm 0.00 in/hr0.0 mm/hr 0.00 in0.0 mm
03:17 PM 88.2°F31.2°C 43.3°F6.3°C 21% 4.5 mph WSW7.2 kmh WSW 6.3 mph10.1 kmh 30.05 in1017.6 mb 0.00 in0.0 mm 0.00 in/hr0.0 mm/hr 0.00 in0.0 mm
03:22 PM 87.3°F30.7°C 39.7°F4.3°C 19% 5.4 mph WSW8.7 kmh WSW 7.4 mph11.9 kmh 30.04 in1017.3 mb 0.00 in0.0 mm 0.00 in/hr0.0 mm/hr 0.00 in0.0 mm
03:27 PM 87.1°F30.6°C 42.4°F5.8°C 21% 5.1 mph S8.2 kmh S 7.4 mph11.9 kmh 30.04 in1017.3 mb 0.00 in0.0 mm 0.00 in/hr0.0 mm/hr 0.00 in0.0 mm
03:32 PM 87.5°F30.8°C 42.7°F5.9°C 21% 6.9 mph ESE11.1 kmh ESE 10.5 mph16.9 kmh 30.04 in1017.3 mb 0.00 in0.0 mm 0.00 in/hr0.0 mm/hr 0.00 in0.0 mm
03:37 PM 87.7°F30.9°C 42.8°F6.0°C 21% 3.4 mph SW5.5 kmh SW 10.5 mph16.9 kmh 30.04 in1017.3 mb 0.00 in0.0 mm 0.00 in/hr0.0 mm/hr 0.00 in0.0 mm
03:42 PM 88.2°F31.2°C 43.3°F6.3°C 21% 3.6 mph S5.8 kmh S 5.4 mph8.7 kmh 30.04 in1017.3 mb 0.00 in0.0 mm 0.00 in/hr0.0 mm/hr 0.00 in0.0 mm
03:47 PM 88.6°F31.4°C 37.4°F3.0°C 17% 4.6 mph W7.4 kmh W 7.8 mph12.6 kmh 30.04 in1017.3 mb 0.00 in0.0 mm 0.00 in/hr0.0 mm/hr 0.00 in0.0 mm
03:52 PM 87.8°F31.0°C 40.2°F4.6°C 19% 9.5 mph SSW15.3 kmh SSW 9.8 mph15.8 kmh 30.04 in1017.3 mb 0.00 in0.0 mm 0.00 in/hr0.0 mm/hr 0.00 in0.0 mm
03:57 PM 87.5°F30.8°C 39.9°F4.4°C 19% 4.9 mph SSW7.9 kmh SSW 11.2 mph18.0 kmh 30.04 in1017.3 mb 0.00 in0.0 mm 0.00 in/hr0.0 mm/hr 0.00 in0.0 mm
04:02 PM 87.5°F30.8°C 42.7°F5.9°C 21% 4.4 mph S7.1 kmh S 11.2 mph18.0 kmh 30.04 in1017.3 mb 0.00 in0.0 mm 0.00 in/hr0.0 mm/hr 0.00 in0.0 mm
04:07 PM 87.8°F31.0°C 41.9°F5.5°C 20% 1.4 mph E2.3 kmh E 8.7 mph14.0 kmh 30.04 in1017.3 mb 0.00 in0.0 mm 0.00 in/hr0.0 mm/hr 0.00 in0.0 mm
04:12 PM 88.4°F31.3°C 42.4°F5.8°C 20% 5.1 mph SE8.2 kmh SE 5.4 mph8.7 kmh 30.03 in1016.9 mb 0.00 in0.0 mm 0.00 in/hr0.0 mm/hr 0.00 in0.0 mm
04:17 PM 88.9°F31.6°C 43.9°F6.6°C 21% 3.3 mph SE5.3 kmh SE 5.4 mph8.7 kmh 30.03 in1016.9 mb 0.00 in0.0 mm 0.00 in/hr0.0 mm/hr 0.00 in0.0 mm
04:22 PM 88.9°F31.6°C 41.0°F5.0°C 19% 5.9 mph S9.5 kmh S 7.8 mph12.6 kmh 30.03 in1016.9 mb 0.00 in0.0 mm 0.00 in/hr0.0 mm/hr 0.00 in0.0 mm
04:27 PM 88.2°F31.2°C 38.8°F3.8°C 18% 9.3 mph S15.0 kmh S 11.6 mph18.7 kmh 30.03 in1016.9 mb 0.00 in0.0 mm 0.00 in/hr0.0 mm/hr 0.00 in0.0 mm
04:32 PM 87.5°F30.8°C 39.9°F4.4°C 19% 8.5 mph SSW13.7 kmh SSW 12.8 mph20.6 kmh 30.03 in1016.9 mb 0.00 in0.0 mm 0.00 in/hr0.0 mm/hr 0.00 in0.0 mm
04:37 PM 87.1°F30.6°C 39.6°F4.2°C 19% 5.8 mph S9.3 kmh S 12.8 mph20.6 kmh 30.03 in1016.9 mb 0.00 in0.0 mm 0.00 in/hr0.0 mm/hr 0.00 in0.0 mm
04:42 PM 87.1°F30.6°C 42.4°F5.8°C 21% 2.0 mph SE3.2 kmh SE 8.1 mph13.0 kmh 30.03 in1016.9 mb 0.00 in0.0 mm 0.00 in/hr0.0 mm/hr 0.00 in0.0 mm
04:47 PM 87.7°F30.9°C 40.1°F4.5°C 19% 6.2 mph S10.0 kmh S 7.4 mph11.9 kmh 30.03 in1016.9 mb 0.00 in0.0 mm 0.00 in/hr0.0 mm/hr 0.00 in0.0 mm
04:52 PM 87.5°F30.8°C 39.9°F4.4°C 19% 7.1 mph SW11.4 kmh SW 9.8 mph15.8 kmh 30.03 in1016.9 mb 0.00 in0.0 mm 0.00 in/hr0.0 mm/hr 0.00 in0.0 mm
04:57 PM 86.8°F30.4°C 37.5°F3.1°C 18% 4.3 mph WSW6.9 kmh WSW 9.8 mph15.8 kmh 30.03 in1016.9 mb 0.00 in0.0 mm 0.00 in/hr0.0 mm/hr 0.00 in0.0 mm
05:03 PM 86.4°F30.2°C 37.3°F2.9°C 18% 1.8 mph SW2.9 kmh SW 8.1 mph13.0 kmh 30.03 in1016.9 mb 0.00 in0.0 mm 0.00 in/hr0.0 mm/hr 0.00 in0.0 mm
05:08 PM 86.9°F30.5°C 39.4°F4.1°C 19% 2.0 mph SSE3.2 kmh SSE 4.9 mph7.9 kmh 30.03 in1016.9 mb 0.00 in0.0 mm 0.00 in/hr0.0 mm/hr 0.00 in0.0 mm
05:13 PM 87.5°F30.8°C 41.6°F5.3°C 20% 3.7 mph SE6.0 kmh SE 4.7 mph7.6 kmh 30.03 in1016.9 mb 0.00 in0.0 mm 0.00 in/hr0.0 mm/hr 0.00 in0.0 mm
05:18 PM 88.0°F31.1°C 40.3°F4.6°C 19% 4.6 mph SE7.4 kmh SE 5.4 mph8.7 kmh 30.03 in1016.9 mb 0.00 in0.0 mm 0.00 in/hr0.0 mm/hr 0.00 in0.0 mm
05:22 PM 88.0°F31.1°C 40.3°F4.6°C 19% 3.5 mph ESE5.6 kmh ESE 5.4 mph8.7 kmh 30.02 in1016.6 mb 0.00 in0.0 mm 0.00 in/hr0.0 mm/hr 0.00 in0.0 mm
05:27 PM 87.8°F31.0°C 43.0°F6.1°C 21% 2.0 mph SE3.2 kmh SE 5.1 mph8.2 kmh 30.03 in1016.9 mb 0.00 in0.0 mm 0.00 in/hr0.0 mm/hr 0.00 in0.0 mm
05:32 PM 87.5°F30.8°C 39.9°F4.4°C 19% 5.5 mph SSW8.9 kmh SSW 9.2 mph14.8 kmh 30.02 in1016.6 mb 0.00 in0.0 mm 0.00 in/hr0.0 mm/hr 0.00 in0.0 mm
05:37 PM 87.1°F30.6°C 39.6°F4.2°C 19% 7.4 mph SSW11.9 kmh SSW 9.2 mph14.8 kmh 30.02 in1016.6 mb 0.00 in0.0 mm 0.00 in/hr0.0 mm/hr 0.00 in0.0 mm
05:42 PM 86.4°F30.2°C 37.3°F2.9°C 18% 4.8 mph SSW7.7 kmh SSW 9.4 mph15.1 kmh 30.02 in1016.6 mb 0.00 in0.0 mm 0.00 in/hr0.0 mm/hr 0.00 in0.0 mm
05:47 PM 85.5°F29.7°C 38.2°F3.4°C 19% 4.5 mph S7.2 kmh S 9.4 mph15.1 kmh 30.02 in1016.6 mb 0.00 in0.0 mm 0.00 in/hr0.0 mm/hr 0.00 in0.0 mm
05:52 PM 85.1°F29.5°C 37.9°F3.3°C 19% 4.1 mph SW6.6 kmh SW 9.6 mph15.4 kmh 30.02 in1016.6 mb 0.00 in0.0 mm 0.00 in/hr0.0 mm/hr 0.00 in0.0 mm
05:57 PM 85.0°F29.4°C 37.7°F3.2°C 19% 3.4 mph SW5.5 kmh SW 9.6 mph15.4 kmh 30.02 in1016.6 mb 0.00 in0.0 mm 0.00 in/hr0.0 mm/hr 0.00 in0.0 mm
06:03 PM 84.6°F29.2°C 37.4°F3.0°C 19% 4.2 mph SW6.8 kmh SW 7.6 mph12.2 kmh 30.02 in1016.6 mb 0.00 in0.0 mm 0.00 in/hr0.0 mm/hr 0.00 in0.0 mm
06:08 PM 84.6°F29.2°C 37.4°F3.0°C 19% 3.7 mph SSW6.0 kmh SSW 7.6 mph12.2 kmh 30.02 in1016.6 mb 0.00 in0.0 mm 0.00 in/hr0.0 mm/hr 0.00 in0.0 mm
06:13 PM 84.1°F28.9°C 37.0°F2.8°C 19% 5.9 mph S9.5 kmh S 8.3 mph13.4 kmh 30.02 in1016.6 mb 0.00 in0.0 mm 0.00 in/hr0.0 mm/hr 0.00 in0.0 mm
06:18 PM 83.5°F28.6°C 36.6°F2.6°C 19% 4.7 mph SW7.6 kmh SW 8.3 mph13.4 kmh 30.02 in1016.6 mb 0.00 in0.0 mm 0.00 in/hr0.0 mm/hr 0.00 in0.0 mm
06:23 PM 83.2°F28.4°C 36.4°F2.4°C 19% 6.8 mph SW10.9 kmh SW 6.9 mph11.1 kmh 30.02 in1016.6 mb 0.00 in0.0 mm 0.00 in/hr0.0 mm/hr 0.00 in0.0 mm
06:28 PM 82.6°F28.1°C 35.9°F2.2°C 19% 3.0 mph SW4.8 kmh SW 7.4 mph11.9 kmh 30.02 in1016.6 mb 0.00 in0.0 mm 0.00 in/hr0.0 mm/hr 0.00 in0.0 mm
06:33 PM 82.4°F28.0°C 35.7°F2.1°C 19% 4.3 mph SW6.9 kmh SW 7.4 mph11.9 kmh 30.02 in1016.6 mb 0.00 in0.0 mm 0.00 in/hr0.0 mm/hr 0.00 in0.0 mm
06:38 PM 82.1°F27.8°C 35.5°F1.9°C 19% 4.6 mph SW7.4 kmh SW 5.1 mph8.2 kmh 30.02 in1016.6 mb 0.00 in0.0 mm 0.00 in/hr0.0 mm/hr 0.00 in0.0 mm
06:43 PM 81.5°F27.5°C 35.0°F1.7°C 19% 2.8 mph SW4.5 kmh SW 5.1 mph8.2 kmh 30.02 in1016.6 mb 0.00 in0.0 mm 0.00 in/hr0.0 mm/hr 0.00 in0.0 mm
06:48 PM 81.2°F27.3°C 34.7°F1.5°C 19% 2.5 mph SW4.0 kmh SW 4.5 mph7.2 kmh 30.02 in1016.6 mb 0.00 in0.0 mm 0.00 in/hr0.0 mm/hr 0.00 in0.0 mm
06:52 PM 80.6°F27.0°C 34.3°F1.3°C 19% 3.1 mph SW5.0 kmh SW 3.6 mph5.8 kmh 30.02 in1016.6 mb 0.00 in0.0 mm 0.00 in/hr0.0 mm/hr 0.00 in0.0 mm
06:57 PM 80.1°F26.7°C 33.9°F1.1°C 19% 2.6 mph SW4.2 kmh SW 3.6 mph5.8 kmh 30.02 in1016.6 mb 0.00 in0.0 mm 0.00 in/hr0.0 mm/hr 0.00 in0.0 mm
07:03 PM 79.4°F26.3°C 34.8°F1.6°C 20% 2.2 mph SW3.5 kmh SW 3.4 mph5.5 kmh 30.02 in1016.6 mb 0.00 in0.0 mm 0.00 in/hr0.0 mm/hr 0.00 in0.0 mm
07:08 PM 78.8°F26.0°C 32.7°F0.4°C 19% 2.6 mph SW4.2 kmh SW 2.7 mph4.3 kmh 30.02 in1016.6 mb 0.00 in0.0 mm 0.00 in/hr0.0 mm/hr 0.00 in0.0 mm
07:13 PM 78.1°F25.6°C 34.8°F1.6°C 21% 2.3 mph SW3.7 kmh SW 2.9 mph4.7 kmh 30.02 in1016.6 mb 0.00 in0.0 mm 0.00 in/hr0.0 mm/hr 0.00 in0.0 mm
07:18 PM 77.4°F25.2°C 34.3°F1.3°C 21% 1.9 mph SW3.1 kmh SW 2.9 mph4.7 kmh 30.02 in1016.6 mb 0.00 in0.0 mm 0.00 in/hr0.0 mm/hr 0.00 in0.0 mm
07:23 PM 77.0°F25.0°C 34.0°F1.1°C 21% 1.1 mph WSW1.8 kmh WSW 2.7 mph4.3 kmh 30.02 in1016.6 mb 0.00 in0.0 mm 0.00 in/hr0.0 mm/hr 0.00 in0.0 mm
07:28 PM 76.1°F24.5°C 33.3°F0.7°C 21% 0.4 mph WSW0.6 kmh WSW 2.7 mph4.3 kmh 30.02 in1016.6 mb 0.00 in0.0 mm 0.00 in/hr0.0 mm/hr 0.00 in0.0 mm
07:33 PM 75.2°F24.0°C 32.5°F0.3°C 21% 1.0 mph WSW1.6 kmh WSW 1.1 mph1.8 kmh 30.02 in1016.6 mb 0.00 in0.0 mm 0.00 in/hr0.0 mm/hr 0.00 in0.0 mm
07:38 PM 74.5°F23.6°C 32.0°F0.0°C 21% 1.0 mph SW1.6 kmh SW 1.3 mph2.1 kmh 30.02 in1016.6 mb 0.00 in0.0 mm 0.00 in/hr0.0 mm/hr 0.00 in0.0 mm
07:43 PM 73.8°F23.2°C 31.3°F-0.4°C 21% 1.8 mph SW2.9 kmh SW 1.8 mph2.9 kmh 30.03 in1016.9 mb 0.00 in0.0 mm 0.00 in/hr0.0 mm/hr 0.00 in0.0 mm
07:48 PM 73.3°F22.9°C 32.0°F0.0°C 22% 1.3 mph SW2.1 kmh SW 1.8 mph2.9 kmh 30.03 in1016.9 mb 0.00 in0.0 mm 0.00 in/hr0.0 mm/hr 0.00 in0.0 mm
07:53 PM 72.4°F22.4°C 31.2°F-0.4°C 22% 0.9 mph SW1.4 kmh SW 1.6 mph2.6 kmh 30.03 in1016.9 mb 0.00 in0.0 mm 0.00 in/hr0.0 mm/hr 0.00 in0.0 mm
07:58 PM 71.6°F22.0°C 30.5°F-0.8°C 22% Calm Calm 1.3 mph2.1 kmh 30.03 in1016.9 mb 0.00 in0.0 mm 0.00 in/hr0.0 mm/hr 0.00 in0.0 mm
08:03 PM 70.9°F21.6°C 29.9°F-1.2°C 22% 1.5 mph 2.4 kmh 1.8 mph2.9 kmh 30.03 in1016.9 mb 0.00 in0.0 mm 0.00 in/hr0.0 mm/hr 0.00 in0.0 mm
08:08 PM 70.0°F21.1°C 29.2°F-1.6°C 22% 1.0 mph 1.6 kmh 2.0 mph3.2 kmh 30.03 in1016.9 mb 0.00 in0.0 mm 0.00 in/hr0.0 mm/hr 0.00 in0.0 mm
08:13 PM 69.1°F20.6°C 28.5°F-1.9°C 22% 1.0 mph 1.6 kmh 2.0 mph3.2 kmh 30.03 in1016.9 mb 0.00 in0.0 mm 0.00 in/hr0.0 mm/hr 0.00 in0.0 mm
08:18 PM 68.6°F20.3°C 29.0°F-1.7°C 23% 3.9 mph 6.3 kmh 4.3 mph6.9 kmh 30.04 in1017.3 mb 0.00 in0.0 mm 0.00 in/hr0.0 mm/hr 0.00 in0.0 mm
08:23 PM 67.3°F19.6°C 27.9°F-2.3°C 23% 6.3 mph 10.1 kmh 6.9 mph11.1 kmh 30.04 in1017.3 mb 0.00 in0.0 mm 0.00 in/hr0.0 mm/hr 0.00 in0.0 mm
08:28 PM 66.1°F18.9°C 27.8°F-2.3°C 24% 6.4 mph 10.3 kmh 7.4 mph11.9 kmh 30.04 in1017.3 mb 0.00 in0.0 mm 0.00 in/hr0.0 mm/hr 0.00 in0.0 mm
08:33 PM 65.5°F18.6°C 27.4°F-2.6°C 24% 9.0 mph 14.5 kmh 9.2 mph14.8 kmh 30.04 in1017.3 mb 0.00 in0.0 mm 0.00 in/hr0.0 mm/hr 0.00 in0.0 mm
08:38 PM 65.3°F18.5°C 27.2°F-2.7°C 24% 6.3 mph 10.1 kmh 9.2 mph14.8 kmh 30.04 in1017.3 mb 0.00 in0.0 mm 0.00 in/hr0.0 mm/hr 0.00 in0.0 mm
08:43 PM 65.0°F18.3°C 27.9°F-2.3°C 25% 4.3 mph 6.9 kmh 8.1 mph13.0 kmh 30.04 in1017.3 mb 0.00 in0.0 mm 0.00 in/hr0.0 mm/hr 0.00 in0.0 mm
08:48 PM 64.8°F18.2°C 27.7°F-2.4°C 25% 2.5 mph N4.0 kmh N 7.2 mph11.6 kmh 30.04 in1017.3 mb 0.00 in0.0 mm 0.00 in/hr0.0 mm/hr 0.00 in0.0 mm
08:53 PM 64.4°F18.0°C 27.5°F-2.5°C 25% 0.8 mph 1.3 kmh 2.9 mph4.7 kmh 30.04 in1017.3 mb 0.00 in0.0 mm 0.00 in/hr0.0 mm/hr 0.00 in0.0 mm
08:58 PM 63.7°F17.6°C 27.8°F-2.3°C 26% 5.3 mph NE8.5 kmh NE 6.7 mph10.8 kmh 30.05 in1017.6 mb 0.00 in0.0 mm 0.00 in/hr0.0 mm/hr 0.00 in0.0 mm
09:04 PM 63.0°F17.2°C 26.2°F-3.2°C 25% 0.4 mph NNE0.6 kmh NNE 6.7 mph10.8 kmh 30.05 in1017.6 mb 0.00 in0.0 mm 0.00 in/hr0.0 mm/hr 0.00 in0.0 mm
09:09 PM 62.8°F17.1°C 27.1°F-2.7°C 26% Calm Calm 1.3 mph2.1 kmh 30.05 in1017.6 mb 0.00 in0.0 mm 0.00 in/hr0.0 mm/hr 0.00 in0.0 mm
09:14 PM 62.6°F17.0°C 26.9°F-2.8°C 26% 0.6 mph ESE1.0 kmh ESE 0.9 mph1.4 kmh 30.05 in1017.6 mb 0.00 in0.0 mm 0.00 in/hr0.0 mm/hr 0.00 in0.0 mm
09:19 PM 62.3°F16.8°C 27.5°F-2.5°C 27% 1.0 mph SE1.6 kmh SE 1.1 mph1.8 kmh 30.05 in1017.6 mb 0.00 in0.0 mm 0.00 in/hr0.0 mm/hr 0.00 in0.0 mm
09:24 PM 61.7°F16.5°C 28.1°F-2.2°C 28% Calm Calm 1.1 mph1.8 kmh 30.05 in1017.6 mb 0.00 in0.0 mm 0.00 in/hr0.0 mm/hr 0.00 in0.0 mm
09:29 PM 61.2°F16.2°C 27.5°F-2.5°C 28% 1.5 mph E2.4 kmh E 2.9 mph4.7 kmh 30.05 in1017.6 mb 0.00 in0.0 mm 0.00 in/hr0.0 mm/hr 0.00 in0.0 mm
09:34 PM 61.0°F16.1°C 27.5°F-2.5°C 28% 1.6 mph NNE2.6 kmh NNE 2.9 mph4.7 kmh 30.05 in1017.6 mb 0.00 in0.0 mm 0.00 in/hr0.0 mm/hr 0.00 in0.0 mm
09:39 PM 60.8°F16.0°C 28.2°F-2.1°C 29% 2.0 mph E3.2 kmh E 3.1 mph5.0 kmh 30.05 in1017.6 mb 0.00 in0.0 mm 0.00 in/hr0.0 mm/hr 0.00 in0.0 mm
09:44 PM 60.3°F15.7°C 28.7°F-1.8°C 30% 3.7 mph E6.0 kmh E 4.0 mph6.4 kmh 30.05 in1017.6 mb 0.00 in0.0 mm 0.00 in/hr0.0 mm/hr 0.00 in0.0 mm
09:49 PM 59.8°F15.4°C 28.3°F-2.1°C 30% 3.9 mph E6.3 kmh E 4.3 mph6.9 kmh 30.05 in1017.6 mb 0.00 in0.0 mm 0.00 in/hr0.0 mm/hr 0.00 in0.0 mm
09:54 PM 59.4°F15.2°C 28.7°F-1.8°C 31% 4.7 mph ENE7.6 kmh ENE 5.1 mph8.2 kmh 30.05 in1017.6 mb 0.00 in0.0 mm 0.00 in/hr0.0 mm/hr 0.00 in0.0 mm
09:59 PM 59.8°F15.4°C 29.0°F-1.7°C 31% 1.4 mph NE2.3 kmh NE 5.1 mph8.2 kmh 30.05 in1017.6 mb 0.00 in0.0 mm 0.00 in/hr0.0 mm/hr 0.00 in0.0 mm
10:04 PM 59.6°F15.3°C 28.2°F-2.1°C 30% 1.0 mph NNE1.6 kmh NNE 4.7 mph7.6 kmh 30.05 in1017.6 mb 0.00 in0.0 mm 0.00 in/hr0.0 mm/hr 0.00 in0.0 mm
10:09 PM 59.0°F15.0°C 27.7°F-2.4°C 30% 0.6 mph 1.0 kmh 1.8 mph2.9 kmh 30.05 in1017.6 mb 0.00 in0.0 mm 0.00 in/hr0.0 mm/hr 0.00 in0.0 mm
10:14 PM 58.7°F14.8°C 28.1°F-2.2°C 31% Calm Calm 1.8 mph2.9 kmh 30.05 in1017.6 mb 0.00 in0.0 mm 0.00 in/hr0.0 mm/hr 0.00 in0.0 mm
10:19 PM 58.5°F14.7°C 27.9°F-2.3°C 31% 0.6 mph NNW1.0 kmh NNW 1.3 mph2.1 kmh 30.05 in1017.6 mb 0.00 in0.0 mm 0.00 in/hr0.0 mm/hr 0.00 in0.0 mm
10:24 PM 58.3°F14.6°C 27.8°F-2.3°C 31% 0.6 mph NNW1.0 kmh NNW 1.6 mph2.6 kmh 30.05 in1017.6 mb 0.00 in0.0 mm 0.00 in/hr0.0 mm/hr 0.00 in0.0 mm
10:29 PM 58.1°F14.5°C 28.4°F-2.0°C 32% 0.6 mph NE1.0 kmh NE 1.6 mph2.6 kmh 30.05 in1017.6 mb 0.00 in0.0 mm 0.00 in/hr0.0 mm/hr 0.00 in0.0 mm
10:34 PM 57.8°F14.3°C 28.0°F-2.2°C 32% Calm Calm 2.5 mph4.0 kmh 30.05 in1017.6 mb 0.00 in0.0 mm 0.00 in/hr0.0 mm/hr 0.00 in0.0 mm
10:39 PM 57.6°F14.2°C 27.8°F-2.3°C 32% 0.7 mph NE1.1 kmh NE 2.5 mph4.0 kmh 30.05 in1017.6 mb 0.00 in0.0 mm 0.00 in/hr0.0 mm/hr 0.00 in0.0 mm
10:44 PM 57.2°F14.0°C 27.6°F-2.4°C 32% 0.7 mph NNE1.1 kmh NNE 1.1 mph1.8 kmh 30.05 in1017.6 mb 0.00 in0.0 mm 0.00 in/hr0.0 mm/hr 0.00 in0.0 mm
10:49 PM 56.5°F13.6°C 27.5°F-2.5°C 33% 2.3 mph 3.7 kmh 3.6 mph5.8 kmh 30.05 in1017.6 mb 0.00 in0.0 mm 0.00 in/hr0.0 mm/hr 0.00 in0.0 mm
10:54 PM 56.2°F13.4°C 27.9°F-2.3°C 34% 2.7 mph E4.3 kmh E 3.6 mph5.8 kmh 30.06 in1017.9 mb 0.00 in0.0 mm 0.00 in/hr0.0 mm/hr 0.00 in0.0 mm
11:00 PM 55.6°F13.1°C 27.5°F-2.5°C 34% 0.2 mph ENE0.3 kmh ENE 2.9 mph4.7 kmh 30.06 in1017.9 mb 0.00 in0.0 mm 0.00 in/hr0.0 mm/hr 0.00 in0.0 mm
11:04 PM 55.1°F12.8°C 28.4°F-2.0°C 36% 2.0 mph E3.2 kmh E 2.9 mph4.7 kmh 30.05 in1017.6 mb 0.00 in0.0 mm 0.00 in/hr0.0 mm/hr 0.00 in0.0 mm
11:09 PM 54.4°F12.4°C 28.4°F-2.0°C 37% 1.3 mph E2.1 kmh E 3.6 mph5.8 kmh 30.05 in1017.6 mb 0.00 in0.0 mm 0.00 in/hr0.0 mm/hr 0.00 in0.0 mm
11:14 PM 53.8°F12.1°C 28.7°F-1.8°C 38% 3.0 mph N4.8 kmh N 4.3 mph6.9 kmh 30.05 in1017.6 mb 0.00 in0.0 mm 0.00 in/hr0.0 mm/hr 0.00 in0.0 mm
11:19 PM 54.2°F12.3°C 29.0°F-1.7°C 38% 2.6 mph NE4.2 kmh NE 4.3 mph6.9 kmh 30.05 in1017.6 mb 0.00 in0.0 mm 0.00 in/hr0.0 mm/hr 0.00 in0.0 mm
11:24 PM 54.0°F12.2°C 28.8°F-1.8°C 38% 1.1 mph N1.8 kmh N 3.4 mph5.5 kmh 30.05 in1017.6 mb 0.00 in0.0 mm 0.00 in/hr0.0 mm/hr 0.00 in0.0 mm
11:29 PM 53.3°F11.8°C 28.2°F-2.1°C 38% 3.6 mph 5.8 kmh 4.3 mph6.9 kmh 30.06 in1017.9 mb 0.00 in0.0 mm 0.00 in/hr0.0 mm/hr 0.00 in0.0 mm
11:34 PM 52.9°F11.6°C 28.5°F-1.9°C 39% 4.0 mph NNE6.4 kmh NNE 4.5 mph7.2 kmh 30.06 in1017.9 mb 0.00 in0.0 mm 0.00 in/hr0.0 mm/hr 0.00 in0.0 mm
11:39 PM 52.9°F11.6°C 29.3°F-1.5°C 40% 2.3 mph NE3.7 kmh NE 4.5 mph7.2 kmh 30.05 in1017.6 mb 0.00 in0.0 mm 0.00 in/hr0.0 mm/hr 0.00 in0.0 mm
11:44 PM 53.1°F11.7°C 30.0°F-1.1°C 41% 4.0 mph NNE6.4 kmh NNE 4.3 mph6.9 kmh 30.05 in1017.6 mb 0.00 in0.0 mm 0.00 in/hr0.0 mm/hr 0.00 in0.0 mm
11:49 PM 53.5°F11.9°C 30.2°F-1.0°C 41% 2.7 mph NE4.3 kmh NE 4.3 mph6.9 kmh 30.05 in1017.6 mb 0.00 in0.0 mm 0.00 in/hr0.0 mm/hr 0.00 in0.0 mm
11:54 PM 53.8°F12.1°C 31.1°F-0.5°C 42% 3.9 mph NE6.3 kmh NE 4.5 mph7.2 kmh 30.05 in1017.6 mb 0.00 in0.0 mm 0.00 in/hr0.0 mm/hr 0.00 in0.0 mm